Ezine, Turkey
Current Conditions -  °F | °C
As of 6:50 AM on Monday 26 Jan 2015 (Local Time) from LTBH Reporting Station
Rain Showers Rain Showers  
Wind Chill: 50°   Ceiling: 9000
Heat Index: 50°   Visibility: 5mi
Dew Point: 48°   Wind: 5mph
Humidity: 94%   Direction: 70°ENE
Pressure: 29.97"   Gusts: NA
Location:  39.79°N, 26.33°E
Report Text: LTBH 260350Z 07004KT 8000 -SHRA SCT030 BKN090 10/09 Q1015
Loading
Personal Weather Stations






























Interactive Weather Map New forecast layout! Learn more

10-Day Weather Forecast

Advertisements
Track Severe Weather on mobile